Wetterdaten: Woche 03.11.14 - 09.11.14 (KW45)
Datum Zeit Temp. A. Feuchte A. Luftdruck Regen Wind Richtung Taupunkt Windchill Windben
03.11.2014 00:00 7,7 C 81 % 1018,4 hPa 0,0 l/m 0,1 km/h N 4,6 C 7,7 C 1,6 km/h
03.11.2014 01:00 7,5 C 81 % 1018,1 hPa 0,0 l/m 0,3 km/h N 4,5 C 7,5 C 3,2 km/h
03.11.2014 02:00 7,4 C 81 % 1017,7 hPa 0,0 l/m 0,0 km/h N 4,3 C 7,4 C 0,0 km/h
03.11.2014 03:00 6,9 C 82 % 1017,2 hPa 0,0 l/m 0,9 km/h N 4,0 C 6,9 C 6,8 km/h
03.11.2014 04:00 6,6 C 82 % 1017,0 hPa 0,0 l/m 1,1 km/h N 3,8 C 6,6 C 7,6 km/h
03.11.2014 05:00 6,6 C 82 % 1016,9 hPa 0,0 l/m 1,4 km/h N 3,8 C 6,6 C 8,0 km/h
03.11.2014 06:00 6,6 C 82 % 1016,9 hPa 0,0 l/m 0,8 km/h N 3,8 C 6,6 C 6,0 km/h
03.11.2014 07:00 6,5 C 82 % 1017,1 hPa 0,0 l/m 1,5 km/h N 3,6 C 6,5 C 8,4 km/h
03.11.2014 08:00 6,4 C 82 % 1017,2 hPa 0,0 l/m 2,1 km/h N 3,6 C 6,4 C 8,8 km/h
03.11.2014 09:00 6,5 C 82 % 1017,0 hPa 0,0 l/m 2,0 km/h N 3,6 C 6,5 C 10,5 km/h
03.11.2014 10:00 6,6 C 82 % 1016,8 hPa 0,0 l/m 2,2 km/h N 3,7 C 6,6 C 10,5 km/h
03.11.2014 11:00 6,6 C 82 % 1016,1 hPa 0,0 l/m 2,8 km/h N 3,7 C 6,6 C 11,3 km/h
03.11.2014 12:00 6,7 C 82 % 1015,2 hPa 0,0 l/m 2,5 km/h N 3,9 C 6,7 C 11,3 km/h
03.11.2014 13:00 7,1 C 82 % 1014,3 hPa 0,0 l/m 1,8 km/h N 4,2 C 7,1 C 9,3 km/h
03.11.2014 14:00 7,3 C 82 % 1013,3 hPa 0,0 l/m 2,1 km/h N 4,4 C 7,3 C 11,6 km/h
03.11.2014 15:00 7,6 C 82 % 1012,4 hPa 0,0 l/m 1,3 km/h N 4,8 C 7,6 C 8,0 km/h
03.11.2014 16:00 7,8 C 83 % 1011,8 hPa 0,0 l/m 0,8 km/h N 5,1 C 7,8 C 7,6 km/h
03.11.2014 17:00 8,1 C 84 % 1011,4 hPa 0,0 l/m 0,4 km/h N 5,5 C 8,1 C 5,2 km/h
03.11.2014 18:00 8,1 C 84 % 1011,4 hPa 0,0 l/m 0,1 km/h N 5,6 C 8,1 C 1,6 km/h
03.11.2014 19:00 7,1 C 85 % 1011,0 hPa 0,0 l/m 0,0 km/h N 4,7 C 7,1 C 0,0 km/h
03.11.2014 20:00 6,9 C 84 % 1010,6 hPa 0,0 l/m 0,0 km/h N 4,3 C 6,9 C 0,0 km/h
03.11.2014 21:00 7,6 C 83 % 1010,1 hPa 0,0 l/m 0,3 km/h N 4,9 C 7,6 C 1,6 km/h
03.11.2014 22:00 7,5 C 83 % 1009,4 hPa 0,0 l/m 0,1 km/h N 4,8 C 7,5 C 1,6 km/h
03.11.2014 23:00 7,4 C 82 % 1008,8 hPa 0,0 l/m 0,0 km/h N 4,6 C 7,4 C 0,8 km/h
04.11.2014 00:00 7,5 C 82 % 1008,1 hPa 0,0 l/m 0,0 km/h N 4,6 C 7,5 C 0,0 km/h
04.11.2014 01:00 7,4 C 82 % 1007,7 hPa 0,0 l/m 0,2 km/h N 4,6 C 7,4 C 2,0 km/h
04.11.2014 02:00 7,4 C 82 % 1007,1 hPa 0,0 l/m 0,2 km/h N 4,5 C 7,4 C 1,2 km/h
04.11.2014 03:00 7,3 C 82 % 1006,5 hPa 0,0 l/m 0,0 km/h N 4,4 C 7,3 C 0,0 km/h
04.11.2014 04:00 7,0 C 83 % 1006,2 hPa 0,0 l/m 0,1 km/h N 4,2 C 7,0 C 0,8 km/h
04.11.2014 05:00 6,8 C 83 % 1005,8 hPa 0,0 l/m 0,1 km/h N 4,1 C 6,8 C 1,2 km/h
04.11.2014 06:00 6,7 C 83 % 1005,2 hPa 0,0 l/m 0,0 km/h N 4,0 C 6,7 C 0,8 km/h
04.11.2014 07:00 6,6 C 83 % 1005,2 hPa 0,0 l/m 0,1 km/h N 3,9 C 6,6 C 1,2 km/h
04.11.2014 08:00 6,8 C 83 % 1005,2 hPa 0,0 l/m 0,8 km/h N 4,1 C 6,8 C 4,4 km/h
04.11.2014 09:00 8,0 C 83 % 1004,7 hPa 0,0 l/m 1,3 km/h N 5,2 C 8,0 C 6,0 km/h
04.11.2014 10:00 10,7 C 84 % 1004,2 hPa 0,0 l/m 1,6 km/h N 8,0 C 10,7 C 6,4 km/h
04.11.2014 11:00 13,7 C 77 % 1003,2 hPa 0,0 l/m 0,8 km/h N 9,7 C 13,7 C 5,2 km/h
04.11.2014 12:00 18,5 C 58 % 1001,8 hPa 0,0 l/m 7,2 km/h N 10,0 C 18,0 C 19,3 km/h
04.11.2014 13:00 19,0 C 53 % 1001,5 hPa 0,0 l/m 9,0 km/h N 9,3 C 18,0 C 24,5 km/h
04.11.2014 14:00 19,2 C 53 % 1001,5 hPa 0,0 l/m 9,3 km/h N 9,2 C 18,0 C 26,5 km/h
04.11.2014 15:00 18,3 C 53 % 1001,8 hPa 0,0 l/m 8,1 km/h N 8,6 C 17,5 C 24,1 km/h
04.11.2014 16:00 17,6 C 53 % 1002,2 hPa 0,0 l/m 9,0 km/h N 7,8 C 16,4 C 26,5 km/h
04.11.2014 17:00 16,0 C 62 % 1002,7 hPa 0,0 l/m 5,5 km/h N 8,7 C 15,9 C 19,7 km/h
04.11.2014 18:00 15,4 C 67 % 1002,8 hPa 0,0 l/m 6,1 km/h N 9,2 C 15,2 C 19,3 km/h
04.11.2014 19:00 14,8 C 69 % 1002,9 hPa 0,0 l/m 4,2 km/h N 9,1 C 14,8 C 15,7 km/h
04.11.2014 20:00 14,6 C 68 % 1002,6 hPa 0,0 l/m 5,8 km/h N 8,9 C 14,5 C 19,3 km/h
04.11.2014 21:00 14,5 C 67 % 1002,0 hPa 0,0 l/m 7,6 km/h N 8,5 C 13,8 C 26,5 km/h
04.11.2014 22:00 13,9 C 67 % 1001,8 hPa 0,0 l/m 5,3 km/h N 7,9 C 13,7 C 20,1 km/h
04.11.2014 23:00 13,6 C 68 % 1001,3 hPa 0,0 l/m 5,1 km/h N 7,7 C 13,6 C 19,3 km/h
05.11.2014 00:00 12,8 C 71 % 1001,0 hPa 0,0 l/m 2,7 km/h N 7,7 C 12,8 C 12,1 km/h
05.11.2014 01:00 12,3 C 75 % 1001,1 hPa 0,0 l/m 3,8 km/h N 7,9 C 12,3 C 15,3 km/h
05.11.2014 02:00 12,0 C 77 % 1000,9 hPa 0,0 l/m 2,3 km/h N 8,0 C 12,0 C 9,7 km/h
05.11.2014 03:00 12,1 C 77 % 1000,6 hPa 0,0 l/m 2,6 km/h N 8,2 C 12,1 C 10,1 km/h
05.11.2014 04:00 13,4 C 73 % 1000,8 hPa 0,0 l/m 5,2 km/h N 8,6 C 13,4 C 16,9 km/h
05.11.2014 05:00 13,3 C 73 % 1000,8 hPa 0,0 l/m 3,9 km/h N 8,5 C 13,3 C 13,7 km/h
05.11.2014 06:00 13,4 C 72 % 1001,0 hPa 0,0 l/m 2,6 km/h N 8,5 C 13,4 C 14,9 km/h
05.11.2014 07:00 13,7 C 71 % 1001,5 hPa 0,0 l/m 2,6 km/h N 8,6 C 13,7 C 12,9 km/h
05.11.2014 08:00 15,3 C 67 % 1001,7 hPa 0,0 l/m 5,3 km/h N 9,1 C 15,2 C 19,3 km/h
05.11.2014 09:00 17,1 C 62 % 1001,8 hPa 0,0 l/m 6,8 km/h N 9,6 C 16,9 C 21,7 km/h
05.11.2014 10:00 18,6 C 58 % 1002,0 hPa 0,0 l/m 8,0 km/h N 10,2 C 17,9 C 22,5 km/h
05.11.2014 11:00 19,1 C 58 % 1002,1 hPa 0,0 l/m 6,7 km/h N 10,5 C 18,8 C 20,1 km/h
05.11.2014 12:00 19,0 C 59 % 1002,0 hPa 0,0 l/m 6,5 km/h N 10,8 C 19,0 C 20,5 km/h
05.11.2014 13:00 18,9 C 59 % 1002,2 hPa 0,0 l/m 7,9 km/h N 10,7 C 18,3 C 21,7 km/h
05.11.2014 14:00 19,3 C 59 % 1002,5 hPa 0,0 l/m 7,6 km/h N 10,9 C 18,7 C 23,7 km/h
05.11.2014 15:00 18,4 C 62 % 1002,8 hPa 0,0 l/m 4,7 km/h N 10,9 C 18,3 C 19,7 km/h
05.11.2014 16:00 18,4 C 61 % 1003,2 hPa 0,0 l/m 4,8 km/h N 10,8 C 18,4 C 19,7 km/h
05.11.2014 17:00 17,9 C 63 % 1003,6 hPa 0,0 l/m 6,3 km/h N 10,7 C 17,8 C 19,7 km/h
05.11.2014 18:00 17,4 C 64 % 1004,1 hPa 0,0 l/m 6,7 km/h N 10,4 C 16,9 C 18,9 km/h
05.11.2014 19:00 16,2 C 69 % 1004,4 hPa 0,0 l/m 3,5 km/h N 10,4 C 16,0 C 14,5 km/h
05.11.2014 20:00 15,1 C 73 % 1004,6 hPa 0,0 l/m 0,6 km/h N 10,3 C 15,1 C 6,4 km/h
05.11.2014 21:00 14,7 C 75 % 1004,7 hPa 0,0 l/m 2,1 km/h N 10,3 C 14,7 C 8,9 km/h
05.11.2014 22:00 14,4 C 76 % 1004,8 hPa 0,0 l/m 0,9 km/h N 10,1 C 14,4 C 6,4 km/h
05.11.2014 23:00 14,8 C 74 % 1005,0 hPa 0,0 l/m 3,1 km/h N 10,3 C 14,8 C 14,9 km/h
06.11.2014 00:00 15,2 C 73 % 1004,8 hPa 0,0 l/m 4,7 km/h N 10,5 C 15,2 C 18,1 km/h
06.11.2014 01:00 15,1 C 74 % 1005,1 hPa 0,0 l/m 5,1 km/h N 10,5 C 15,1 C 20,9 km/h
06.11.2014 02:00 14,7 C 76 % 1005,9 hPa 0,0 l/m 6,0 km/h N 10,5 C 14,5 C 21,3 km/h
06.11.2014 03:00 14,8 C 76 % 1005,7 hPa 0,0 l/m 6,9 km/h N 10,5 C 14,4 C 20,5 km/h
06.11.2014 04:00 14,5 C 76 % 1005,9 hPa 0,0 l/m 3,1 km/h N 10,3 C 14,5 C 15,7 km/h
06.11.2014 05:00 14,3 C 77 % 1006,6 hPa 0,0 l/m 2,3 km/h N 10,3 C 14,3 C 13,3 km/h
06.11.2014 06:00 14,0 C 79 % 1007,3 hPa 0,0 l/m 1,2 km/h N 10,3 C 14,0 C 6,8 km/h
06.11.2014 07:00 12,8 C 79 % 1008,9 hPa 0,0 l/m 2,3 km/h N 9,3 C 12,8 C 10,5 km/h
06.11.2014 08:00 12,2 C 80 % 1010,2 hPa 0,0 l/m 2,0 km/h N 8,9 C 12,2 C 9,3 km/h
06.11.2014 09:00 12,1 C 80 % 1010,9 hPa 0,0 l/m 1,0 km/h N 8,7 C 12,1 C 6,4 km/h
06.11.2014 10:00 12,0 C 79 % 1011,6 hPa 0,0 l/m 1,8 km/h N 8,4 C 12,0 C 7,2 km/h
06.11.2014 11:00 11,7 C 77 % 1011,6 hPa 0,0 l/m 2,8 km/h N 7,8 C 11,7 C 11,3 km/h
06.11.2014 12:00 11,5 C 77 % 1011,7 hPa 0,0 l/m 2,9 km/h N 7,5 C 11,5 C 10,5 km/h
06.11.2014 13:00 11,0 C 77 % 1012,0 hPa 0,0 l/m 3,2 km/h N 7,1 C 11,0 C 13,7 km/h
06.11.2014 14:00 10,6 C 78 % 1012,4 hPa 0,0 l/m 2,3 km/h N 6,9 C 10,6 C 9,7 km/h
06.11.2014 15:00 10,7 C 80 % 1012,8 hPa 0,0 l/m 0,9 km/h N 7,3 C 10,7 C 5,2 km/h
06.11.2014 16:00 10,3 C 81 % 1012,8 hPa 0,0 l/m 0,3 km/h N 7,1 C 10,3 C 3,6 km/h
06.11.2014 17:00 10,1 C 82 % 1012,9 hPa 0,0 l/m 0,2 km/h N 7,1 C 10,1 C 2,4 km/h
06.11.2014 18:00 10,0 C 83 % 1012,9 hPa 0,0 l/m 0,1 km/h N 7,2 C 10,0 C 1,6 km/h
06.11.2014 19:00 10,0 C 84 % 1013,1 hPa 0,0 l/m 0,4 km/h N 7,4 C 10,0 C 2,8 km/h
06.11.2014 20:00 9,9 C 83 % 1013,1 hPa 0,0 l/m 0,3 km/h N 7,2 C 9,9 C 3,2 km/h
06.11.2014 21:00 10,0 C 83 % 1013,1 hPa 0,0 l/m 0,4 km/h N 7,2 C 10,0 C 4,0 km/h
06.11.2014 22:00 10,0 C 83 % 1013,3 hPa 0,0 l/m 0,1 km/h N 7,2 C 10,0 C 1,2 km/h
06.11.2014 23:00 10,1 C 84 % 1013,0 hPa 0,0 l/m 0,2 km/h N 7,5 C 10,1 C 2,0 km/h
07.11.2014 00:00 9,8 C 85 % 1012,8 hPa 0,0 l/m 0,0 km/h N 7,3 C 9,8 C 0,0 km/h
07.11.2014 01:00 9,8 C 85 % 1012,6 hPa 0,0 l/m 0,0 km/h N 7,4 C 9,8 C 0,0 km/h
07.11.2014 02:00 9,8 C 85 % 1012,3 hPa 0,0 l/m 0,0 km/h N 7,4 C 9,8 C 0,0 km/h
07.11.2014 03:00 9,9 C 85 % 1011,4 hPa 0,0 l/m 0,0 km/h N 7,5 C 9,9 C 0,0 km/h
07.11.2014 04:00 9,9 C 85 % 1011,1 hPa 0,0 l/m 0,0 km/h N 7,5 C 9,9 C 0,0 km/h
07.11.2014 05:00 9,9 C 85 % 1010,9 hPa 0,0 l/m 0,0 km/h N 7,5 C 9,9 C 0,0 km/h
07.11.2014 06:00 9,9 C 85 % 1010,6 hPa 0,0 l/m 0,0 km/h N 7,5 C 9,9 C 0,0 km/h
07.11.2014 07:00 10,1 C 84 % 1010,4 hPa 0,0 l/m 0,1 km/h N 7,5 C 10,1 C 1,2 km/h
07.11.2014 08:00 10,2 C 84 % 1010,2 hPa 0,0 l/m 0,0 km/h N 7,6 C 10,2 C 0,0 km/h
07.11.2014 09:00 11,0 C 84 % 1009,9 hPa 0,0 l/m 0,1 km/h N 8,3 C 11,0 C 2,0 km/h
07.11.2014 10:00 12,7 C 83 % 1009,3 hPa 0,0 l/m 0,7 km/h N 10,0 C 12,7 C 5,6 km/h
07.11.2014 11:00 14,5 C 84 % 1008,8 hPa 0,0 l/m 1,1 km/h N 11,8 C 14,5 C 7,2 km/h
07.11.2014 12:00 14,9 C 84 % 1008,5 hPa 0,0 l/m 0,8 km/h N 12,1 C 14,9 C 5,6 km/h
07.11.2014 13:00 15,4 C 84 % 1008,3 hPa 0,0 l/m 0,7 km/h N 12,7 C 15,4 C 6,4 km/h
07.11.2014 14:00 14,7 C 84 % 1008,2 hPa 0,0 l/m 1,1 km/h N 12,0 C 14,7 C 6,4 km/h
07.11.2014 15:00 13,6 C 84 % 1008,2 hPa 0,0 l/m 0,9 km/h N 10,8 C 13,6 C 6,4 km/h
07.11.2014 16:00 14,9 C 84 % 1008,3 hPa 0,0 l/m 1,2 km/h N 12,2 C 14,9 C 6,4 km/h
07.11.2014 17:00 14,7 C 84 % 1008,7 hPa 0,3 l/m 0,2 km/h N 12,0 C 14,7 C 2,8 km/h
07.11.2014 18:00 14,8 C 82 % 1008,9 hPa 2,9 l/m 0,9 km/h N 11,8 C 14,8 C 5,6 km/h
07.11.2014 19:00 14,9 C 81 % 1008,8 hPa 0,8 l/m 0,9 km/h N 11,7 C 14,9 C 7,2 km/h
07.11.2014 20:00 13,2 C 83 % 1009,9 hPa 0,3 l/m 3,0 km/h N 10,4 C 13,2 C 11,3 km/h
07.11.2014 21:00 10,5 C 84 % 1011,0 hPa 0,8 l/m 3,7 km/h N 7,9 C 10,5 C 12,9 km/h
07.11.2014 22:00 10,2 C 85 % 1011,3 hPa 1,3 l/m 3,6 km/h N 7,7 C 10,2 C 13,7 km/h
07.11.2014 23:00 10,3 C 84 % 1011,6 hPa 0,0 l/m 6,4 km/h N 7,7 C 9,8 C 20,5 km/h
08.11.2014 00:00 10,7 C 82 % 1011,8 hPa 0,5 l/m 7,1 km/h N 7,7 C 10,2 C 21,3 km/h
08.11.2014 01:00 10,4 C 81 % 1012,1 hPa 0,5 l/m 4,0 km/h N 7,2 C 10,4 C 15,7 km/h
08.11.2014 02:00 9,8 C 81 % 1013,1 hPa 1,6 l/m 1,6 km/h N 6,7 C 9,8 C 7,6 km/h
08.11.2014 03:00 9,4 C 83 % 1013,8 hPa 1,0 l/m 1,2 km/h N 6,6 C 9,4 C 9,3 km/h
08.11.2014 04:00 9,4 C 84 % 1014,7 hPa 1,3 l/m 0,5 km/h N 6,7 C 9,4 C 4,4 km/h
08.11.2014 05:00 9,0 C 85 % 1015,0 hPa 0,3 l/m 1,0 km/h N 6,6 C 9,0 C 5,6 km/h
08.11.2014 06:00 9,0 C 85 % 1015,5 hPa 0,0 l/m 1,0 km/h N 6,6 C 9,0 C 8,0 km/h
08.11.2014 07:00 9,2 C 85 % 1016,2 hPa 0,0 l/m 1,5 km/h N 6,8 C 9,2 C 6,9 km/h
08.11.2014 08:00 9,6 C 84 % 1017,0 hPa 0,0 l/m 3,1 km/h N 7,1 C 9,6 C 10,9 km/h
08.11.2014 09:00 10,1 C 83 % 1017,1 hPa 0,0 l/m 3,0 km/h N 7,3 C 10,1 C 10,9 km/h
08.11.2014 10:00 10,5 C 82 % 1017,4 hPa 0,0 l/m 3,3 km/h N 7,6 C 10,5 C 14,1 km/h
08.11.2014 11:00 11,1 C 82 % 1017,2 hPa 0,0 l/m 3,8 km/h N 8,0 C 11,1 C 13,7 km/h
08.11.2014 12:00 11,0 C 82 % 1017,1 hPa 0,0 l/m 3,7 km/h N 8,0 C 11,0 C 14,1 km/h
08.11.2014 13:00 11,1 C 82 % 1017,0 hPa 0,0 l/m 4,5 km/h N 8,2 C 11,1 C 14,9 km/h
08.11.2014 14:00 11,4 C 81 % 1016,8 hPa 0,0 l/m 4,5 km/h N 8,1 C 11,4 C 16,5 km/h
08.11.2014 15:00 11,1 C 81 % 1016,7 hPa 0,0 l/m 3,6 km/h N 7,9 C 11,1 C 11,3 km/h
08.11.2014 16:00 10,6 C 82 % 1016,4 hPa 0,0 l/m 1,2 km/h N 7,7 C 10,6 C 6,0 km/h
08.11.2014 17:00 10,2 C 84 % 1016,7 hPa 0,3 l/m 0,2 km/h N 7,5 C 10,2 C 2,0 km/h
08.11.2014 18:00 9,8 C 85 % 1016,7 hPa 0,3 l/m 0,0 km/h N 7,3 C 9,8 C 0,4 km/h
08.11.2014 19:00 9,3 C 85 % 1016,3 hPa 0,0 l/m 0,0 km/h N 6,9 C 9,3 C 0,0 km/h
08.11.2014 20:00 9,2 C 85 % 1015,8 hPa 0,0 l/m 0,1 km/h N 6,8 C 9,2 C 0,8 km/h
08.11.2014 21:00 8,9 C 85 % 1015,5 hPa 0,3 l/m 0,0 km/h N 6,5 C 8,9 C 0,0 km/h
08.11.2014 22:00 8,4 C 85 % 1015,0 hPa 0,0 l/m 0,0 km/h N 6,1 C 8,4 C 0,0 km/h
08.11.2014 23:00 7,9 C 85 % 1014,7 hPa 0,0 l/m 0,0 km/h N 5,5 C 7,9 C 0,0 km/h
09.11.2014 00:00 8,4 C 84 % 1014,1 hPa 0,0 l/m 0,0 km/h N 5,8 C 8,4 C 0,0 km/h
09.11.2014 01:00 8,2 C 84 % 1013,6 hPa 0,0 l/m 0,1 km/h N 5,6 C 8,2 C 1,6 km/h
09.11.2014 02:00 8,6 C 83 % 1013,2 hPa 0,0 l/m 0,4 km/h N 5,8 C 8,6 C 4,0 km/h
09.11.2014 03:00 8,6 C 82 % 1012,7 hPa 0,0 l/m 0,3 km/h N 5,7 C 8,6 C 3,2 km/h
09.11.2014 04:00 8,3 C 82 % 1012,5 hPa 0,0 l/m 0,2 km/h N 5,3 C 8,3 C 3,2 km/h
09.11.2014 05:00 8,4 C 81 % 1012,5 hPa 0,0 l/m 0,3 km/h N 5,4 C 8,4 C 3,2 km/h
09.11.2014 06:00 8,4 C 81 % 1012,5 hPa 0,0 l/m 0,2 km/h N 5,4 C 8,4 C 2,4 km/h
09.11.2014 07:00 8,7 C 80 % 1012,8 hPa 0,0 l/m 1,1 km/h N 5,5 C 8,7 C 6,8 km/h
09.11.2014 08:00 9,2 C 80 % 1013,0 hPa 0,0 l/m 1,5 km/h N 5,9 C 9,2 C 7,6 km/h
09.11.2014 09:00 10,4 C 80 % 1012,8 hPa 0,0 l/m 2,2 km/h N 7,2 C 10,4 C 8,9 km/h
09.11.2014 10:00 12,7 C 84 % 1012,8 hPa 0,0 l/m 1,8 km/h N 10,0 C 12,7 C 7,6 km/h
09.11.2014 11:00 14,9 C 76 % 1012,2 hPa 0,0 l/m 5,6 km/h N 10,7 C 14,8 C 16,9 km/h
09.11.2014 12:00 16,1 C 72 % 1011,6 hPa 0,0 l/m 5,2 km/h N 11,0 C 16,1 C 18,5 km/h
09.11.2014 13:00 16,2 C 72 % 1011,2 hPa 0,0 l/m 6,4 km/h N 11,1 C 16,1 C 20,1 km/h
09.11.2014 14:00 15,4 C 75 % 1011,0 hPa 0,0 l/m 6,9 km/h N 10,9 C 15,1 C 19,3 km/h
09.11.2014 15:00 13,9 C 78 % 1011,3 hPa 0,0 l/m 5,5 km/h N 10,1 C 13,7 C 18,5 km/h
09.11.2014 16:00 12,4 C 82 % 1011,8 hPa 0,0 l/m 2,8 km/h N 9,3 C 12,4 C 10,5 km/h
09.11.2014 17:00 11,2 C 84 % 1012,3 hPa 0,0 l/m 2,1 km/h N 8,5 C 11,2 C 8,1 km/h
09.11.2014 18:00 10,4 C 85 % 1012,6 hPa 0,0 l/m 2,5 km/h N 8,0 C 10,4 C 9,6 km/h
09.11.2014 19:00 10,0 C 85 % 1012,8 hPa 0,0 l/m 1,8 km/h N 7,6 C 10,0 C 8,4 km/h
09.11.2014 20:00 9,7 C 85 % 1012,7 hPa 0,0 l/m 1,1 km/h N 7,3 C 9,7 C 6,4 km/h
09.11.2014 21:00 9,3 C 85 % 1012,6 hPa 0,0 l/m 0,3 km/h N 6,9 C 9,3 C 3,2 km/h
09.11.2014 22:00 8,9 C 85 % 1012,5 hPa 0,0 l/m 0,1 km/h N 6,6 C 8,9 C 2,0 km/h
09.11.2014 23:00 8,9 C 84 % 1012,3 hPa 0,0 l/m 0,2 km/h N 6,3 C 8,9 C 4,0 km/h
Min-Datum _ 03.11.14 04.11.14 05.11.14 - 03.11.14 - 03.11.14 03.11.14 03.11.14
_ Min-Zeit 07:15 16:00 03:15 - 00:15 - 07:45 07:45 00:15
Minimum _ 6,4 C 51 % 1000,6 hPa - 0,0 km/h - 3,6 C 6,4 C 0,0 km/h
Max-Datum _ 05.11.14 03.11.14 03.11.14 07.11.14 04.11.14 - 07.11.14 05.11.14 04.11.14
_ Max-Zeit 14:15 19:15 00:00 18:00 13:30 - 13:30 11:00 14:30
Maximum _ 19,6 C 85 % 1018,6 hPa 2,9 l/m 9,9 km/h
N
- 12,8 C 19,2 C 30,6 km/h
N
Durchschnitt _ 11,4 C 78 % 1009,9 hPa #12,2 l/m 2,3 km/h N 7,6 C 11,3 C 9,2 km/h